Time;durP1;ratioP1;P1;durP2;ratioP2;P2;SDS_P1;SDS_P2;PMS_P1;PMS_P2;Temp;Humidity;BMP_temperature;BMP_pressure;BME280_temperature;BME280_humidity;BME280_pressure;Samples;Min_cycle;Max_cycle;Signal;HPM_P1;HPM_P2
2022/01/15 00:00:20;;;;;;;59.08;19.75;;;;;;;2.72;86.79;102886.72;5069745;28;20061;-68
2022/01/15 00:02:50;;;;;;;62.80;20.30;;;;;;;2.68;86.84;102888.56;5068349;28;20497;-68
2022/01/15 00:05:18;;;;;;;53.72;19.65;;;;;;;2.78;87.04;102888.25;5067528;28;20056;-67
2022/01/15 00:07:47;;;;;;;62.78;20.50;;;;;;;2.80;87.15;102886.44;5067754;28;20052;-67
2022/01/15 00:10:16;;;;;;;54.38;18.83;;;;;;;2.82;86.83;102885.50;5069395;28;20097;-67
2022/01/15 00:12:43;;;;;;;50.92;19.25;;;;;;;2.81;86.25;102891.63;5069144;28;20044;-68
2022/01/15 00:15:16;;;;;;;56.38;19.02;;;;;;;2.85;86.44;102893.25;5068943;28;20044;-68
2022/01/15 00:17:48;;;;;;;60.15;19.75;;;;;;;2.70;86.47;102888.53;5068210;28;20079;-69
2022/01/15 00:20:19;;;;;;;57.05;19.20;;;;;;;2.76;86.15;102890.94;5067632;28;20041;-68
2022/01/15 00:22:48;;;;;;;57.15;21.20;;;;;;;2.80;86.49;102879.47;5069269;28;20045;-68
2022/01/15 00:25:16;;;;;;;53.03;19.45;;;;;;;2.88;86.27;102884.44;5067612;28;20098;-68
2022/01/15 00:27:43;;;;;;;55.75;19.48;;;;;;;2.89;85.87;102883.50;5084703;28;20041;-68
2022/01/15 00:30:12;;;;;;;53.42;18.67;;;;;;;2.88;86.09;102885.28;5050171;28;20106;-68
2022/01/15 00:32:39;;;;;;;49.92;18.80;;;;;;;2.94;86.22;102888.63;5051273;28;20500;-68
2022/01/15 00:35:08;;;;;;;43.08;15.98;;;;;;;2.68;85.88;102885.94;5050541;28;20450;-68
2022/01/15 00:37:35;;;;;;;44.60;16.20;;;;;;;2.81;86.16;102890.78;5068656;28;20501;-68
2022/01/15 00:40:05;;;;;;;46.63;15.98;;;;;;;2.71;85.98;102882.38;5067595;28;20049;-68
2022/01/15 00:42:34;;;;;;;46.17;16.17;;;;;;;2.78;85.82;102891.72;5058843;28;20045;-68
2022/01/15 00:45:02;;;;;;;45.40;16.63;;;;;;;2.65;86.01;102879.94;5068446;28;20095;-69
2022/01/15 00:47:31;;;;;;;44.58;16.33;;;;;;;2.71;86.14;102876.25;5068249;28;20070;-68
2022/01/15 00:49:59;;;;;;;42.17;15.50;;;;;;;2.64;86.24;102879.09;5043215;28;20106;-68
2022/01/15 00:52:27;;;;;;;45.20;15.75;;;;;;;2.72;86.25;102878.84;5083930;28;20036;-68
2022/01/15 00:54:54;;;;;;;40.65;15.07;;;;;;;2.76;85.99;102872.59;5067159;28;20041;-68
2022/01/15 00:57:22;;;;;;;37.13;14.15;;;;;;;2.71;86.12;102866.66;5064028;28;20064;-68
2022/01/15 00:59:49;;;;;;;43.33;16.52;;;;;;;2.71;86.34;102861.41;5050144;28;20098;-68
2022/01/15 01:02:16;;;;;;;45.38;16.83;;;;;;;2.69;86.16;102856.22;5053740;28;20410;-68
2022/01/15 01:04:43;;;;;;;38.72;14.85;;;;;;;2.76;85.57;102851.63;5051071;28;20489;-68
2022/01/15 01:07:11;;;;;;;42.70;13.95;;;;;;;2.67;85.31;102844.06;5048154;28;20041;-67
2022/01/15 01:09:59;;;;;;;39.05;15.90;;;;;;;2.74;86.01;102839.47;5054669;28;20044;-67
2022/01/15 01:23:23;;;;;;;45.22;14.80;;;;;;;2.75;86.13;102831.56;5068577;28;20037;-68
2022/01/15 01:25:55;;;;;;;39.17;14.77;;;;;;;2.79;86.19;102830.56;5069260;28;20044;-68
2022/01/15 01:28:26;;;;;;;42.85;14.07;;;;;;;2.68;86.15;102824.81;5069555;28;20041;-68
2022/01/15 01:30:59;;;;;;;36.83;13.87;;;;;;;2.74;86.24;102823.75;5069662;28;20037;-69
2022/01/15 01:33:32;;;;;;;37.75;13.73;;;;;;;2.74;85.92;102821.97;5050367;28;21574;-68
2022/01/15 01:36:11;;;;;;;40.45;13.95;;;;;;;2.72;85.95;102818.56;5055237;28;20048;-68
2022/01/15 01:38:48;;;;;;;40.97;13.68;;;;;;;2.73;85.51;102816.78;5062648;28;20048;-69
2022/01/15 01:41:18;;;;;;;38.92;13.35;;;;;;;2.72;85.94;102821.19;5069244;28;20048;-68
2022/01/15 01:43:51;;;;;;;39.60;14.00;;;;;;;2.64;86.57;102818.81;5068368;28;20032;-69
2022/01/15 01:46:34;;;;;;;39.00;14.00;;;;;;;2.64;86.46;102812.75;5068046;28;20065;-68
2022/01/15 01:49:03;;;;;;;36.38;13.60;;;;;;;2.63;86.32;102811.00;5055637;28;20049;-69
2022/01/15 01:51:34;;;;;;;36.95;13.32;;;;;;;2.68;86.22;102807.31;5047855;28;20103;-68
2022/01/15 01:54:04;;;;;;;36.27;13.77;;;;;;;2.71;86.16;102802.88;5048380;28;20033;-68
2022/01/15 01:56:32;;;;;;;36.80;13.07;;;;;;;2.65;85.84;102802.19;5066835;28;20049;-68
2022/01/15 01:58:59;;;;;;;34.90;12.98;;;;;;;2.63;86.01;102800.53;5067626;28;20036;-68
2022/01/15 02:01:26;;;;;;;32.22;12.45;;;;;;;2.63;86.24;102804.00;5069063;28;20404;-68
2022/01/15 02:03:58;;;;;;;32.58;13.68;;;;;;;2.71;85.74;102805.50;5046496;28;20051;-68
2022/01/15 02:06:24;;;;;;;33.53;12.55;;;;;;;2.72;85.72;102799.38;5067037;28;20140;-68
2022/01/15 02:08:54;;;;;;;37.42;12.90;;;;;;;2.55;86.18;102799.91;5068759;28;20123;-68
2022/01/15 02:11:21;;;;;;;35.03;12.75;;;;;;;2.40;86.62;102801.28;5080643;28;20047;-68
2022/01/15 02:13:48;;;;;;;36.92;12.98;;;;;;;2.54;85.80;102795.59;5097399;28;20052;-68
2022/01/15 02:16:15;;;;;;;31.50;11.90;;;;;;;2.57;86.33;102782.41;5067919;28;20082;-68
2022/01/15 02:18:42;;;;;;;35.78;12.88;;;;;;;2.50;85.88;102782.59;5050695;28;20049;-67
2022/01/15 02:23:44;;;;;;;31.67;11.90;;;;;;;2.54;86.30;102785.97;5068582;28;20127;-68
2022/01/15 02:26:15;;;;;;;30.88;11.23;;;;;;;2.53;85.96;102789.50;5052452;28;20049;-68
2022/01/15 02:28:45;;;;;;;28.42;11.82;;;;;;;2.58;86.04;102795.44;5054750;28;20041;-67
2022/01/15 02:31:15;;;;;;;28.67;11.13;;;;;;;2.49;85.96;102790.50;5055254;28;20040;-68
2022/01/15 02:33:44;;;;;;;27.30;11.15;;;;;;;2.44;86.26;102780.19;5054425;28;20037;-68
2022/01/15 02:36:14;;;;;;;29.90;10.35;;;;;;;2.50;86.00;102776.50;5035303;28;20061;-67
2022/01/15 02:38:42;;;;;;;29.85;11.43;;;;;;;2.50;85.80;102764.25;5055434;28;20067;-68
2022/01/15 02:41:10;;;;;;;27.98;12.05;;;;;;;2.51;85.36;102765.13;5053235;28;20045;-68
2022/01/15 02:43:37;;;;;;;36.22;12.82;;;;;;;2.50;85.51;102761.63;5054831;28;20044;-68
2022/01/15 02:46:19;;;;;;;33.92;13.38;;;;;;;2.54;84.66;102762.38;5054493;28;20045;-68
2022/01/15 02:48:48;;;;;;;31.08;13.45;;;;;;;2.50;85.12;102768.66;5053286;28;20052;-68
2022/01/15 02:51:15;;;;;;;34.28;13.27;;;;;;;2.51;85.17;102767.75;5053436;28;20049;-67
2022/01/15 02:53:42;;;;;;;35.95;12.98;;;;;;;2.48;84.97;102762.59;5054224;28;20037;-68
2022/01/15 02:56:09;;;;;;;34.97;12.95;;;;;;;2.48;85.04;102763.44;5052823;28;20045;-68
2022/01/15 02:58:36;;;;;;;30.90;13.63;;;;;;;2.43;85.85;102761.91;5051696;28;20049;-68
2022/01/15 03:01:04;;;;;;;30.13;13.20;;;;;;;2.42;85.78;102765.41;5047659;28;20264;-68
2022/01/15 03:03:31;;;;;;;37.08;13.43;;;;;;;2.36;85.59;102753.38;5052570;28;20507;-68
2022/01/15 03:05:58;;;;;;;36.08;13.88;;;;;;;2.35;85.62;102756.03;5054049;28;20047;-68
2022/01/15 03:08:25;;;;;;;30.88;12.63;;;;;;;2.43;85.49;102756.66;5054278;28;20044;-69
2022/01/15 03:10:53;;;;;;;28.00;11.93;;;;;;;2.37;85.64;102752.50;5054501;28;20045;-68
2022/01/15 03:13:20;;;;;;;28.88;12.02;;;;;;;2.34;85.80;102746.50;5086512;28;20051;-68
2022/01/15 03:15:46;;;;;;;29.85;11.63;;;;;;;2.33;85.64;102748.25;5053196;28;20386;-68
2022/01/15 03:18:13;;;;;;;31.83;11.45;;;;;;;2.39;85.69;102747.19;5086435;28;20037;-68
2022/01/15 03:20:40;;;;;;;25.77;12.10;;;;;;;2.36;85.61;102749.91;5053402;28;20099;-68
2022/01/15 03:23:07;;;;;;;33.50;12.63;;;;;;;2.35;85.53;102740.34;5053800;28;20060;-68
2022/01/15 03:25:33;;;;;;;28.20;11.82;;;;;;;2.29;85.48;102733.53;5054014;28;20037;-68
2022/01/15 03:28:00;;;;;;;30.92;11.40;;;;;;;2.36;84.52;102727.19;5054429;28;20513;-68
2022/01/15 03:30:27;;;;;;;28.50;12.23;;;;;;;2.34;84.62;102723.78;5054133;28;20055;-67
2022/01/15 03:32:54;;;;;;;33.13;12.50;;;;;;;2.26;84.81;102725.81;5053250;28;20056;-67
2022/01/15 03:35:21;;;;;;;32.30;11.32;;;;;;;2.25;84.45;102721.47;5051924;28;20033;-68
2022/01/15 03:37:47;;;;;;;31.25;11.88;;;;;;;2.24;84.79;102709.28;5053104;28;20049;-68
2022/01/15 03:40:15;;;;;;;23.55;10.35;;;;;;;2.19;84.42;102711.22;5085977;28;20102;-68
2022/01/15 03:42:44;;;;;;;24.27;10.57;;;;;;;2.23;85.23;102721.50;5052921;28;20037;-68
2022/01/15 03:45:13;;;;;;;26.42;10.82;;;;;;;2.23;84.90;102724.13;5053732;28;20033;-68
2022/01/15 03:47:41;;;;;;;25.27;11.07;;;;;;;2.23;84.59;102720.66;5054342;28;20068;-68
2022/01/15 03:50:09;;;;;;;27.83;11.68;;;;;;;2.22;84.48;102714.56;5045266;28;20438;-67
2022/01/15 03:52:36;;;;;;;28.88;12.00;;;;;;;2.24;84.33;102711.91;5033447;28;20456;-67
2022/01/15 03:55:04;;;;;;;27.85;11.93;;;;;;;2.22;84.26;102709.34;5033611;28;20037;-67
2022/01/15 03:57:31;;;;;;;28.35;11.13;;;;;;;2.14;84.10;102702.66;5033744;28;20044;-68
2022/01/15 04:00:00;;;;;;;23.42;10.85;;;;;;;2.21;83.71;102694.53;5032767;28;20046;-68
2022/01/15 04:02:27;;;;;;;26.05;11.00;;;;;;;1.98;84.66;102689.19;5033633;28;20042;-68
2022/01/15 04:04:54;;;;;;;25.70;11.43;;;;;;;2.07;84.62;102689.75;5036864;28;20416;-68
2022/01/15 04:07:21;;;;;;;25.15;10.88;;;;;;;2.12;84.04;102684.34;5053111;28;20412;-68
2022/01/15 04:09:47;;;;;;;24.58;11.68;;;;;;;2.06;84.44;102679.34;5052194;28;20424;-68
2022/01/15 04:12:15;;;;;;;27.13;11.32;;;;;;;2.05;84.80;102672.38;5051843;28;20049;-67
2022/01/15 04:14:42;;;;;;;25.25;11.00;;;;;;;1.90;84.82;102677.22;5051991;28;20057;-67
2022/01/15 04:17:08;;;;;;;26.23;11.35;;;;;;;1.89;85.45;102667.66;5050743;28;20041;-67
2022/01/15 04:19:36;;;;;;;26.08;11.15;;;;;;;1.81;85.85;102661.81;5053211;28;20099;-67
2022/01/15 04:22:03;;;;;;;27.00;11.32;;;;;;;1.76;85.33;102660.25;5051978;28;20099;-67
2022/01/15 04:24:30;;;;;;;24.80;10.10;;;;;;;1.83;86.13;102667.84;5053019;28;20534;-68
2022/01/15 04:26:56;;;;;;;26.90;11.15;;;;;;;1.89;85.62;102669.41;5052370;28;20067;-68
2022/01/15 04:29:23;;;;;;;28.08;10.50;;;;;;;1.80;84.70;102665.34;5053056;28;20408;-68
2022/01/15 04:31:51;;;;;;;25.23;10.90;;;;;;;1.68;84.97;102666.59;5033419;28;20762;-68
2022/01/15 04:34:22;;;;;;;26.80;11.27;;;;;;;1.67;85.85;102656.16;5052925;28;20048;-67
2022/01/15 04:36:50;;;;;;;24.73;10.93;;;;;;;1.60;86.21;102645.06;5031723;28;20156;-67
2022/01/15 04:39:16;;;;;;;26.88;11.15;;;;;;;1.64;85.55;102656.28;5031843;28;20100;-68
2022/01/15 04:41:44;;;;;;;25.63;11.40;;;;;;;1.76;85.37;102652.41;5033141;28;20060;-67
2022/01/15 04:44:10;;;;;;;26.33;11.65;;;;;;;1.52;85.68;102645.28;5044197;28;20086;-67
2022/01/15 04:46:38;;;;;;;34.75;12.68;;;;;;;1.48;86.25;102648.91;5052792;28;20041;-67
2022/01/15 04:49:06;;;;;;;26.95;12.25;;;;;;;1.57;86.78;102653.00;5032491;28;20053;-67
2022/01/15 04:51:34;;;;;;;28.63;12.30;;;;;;;1.60;86.51;102649.41;5032869;28;20076;-67
2022/01/15 04:54:00;;;;;;;29.48;12.57;;;;;;;1.49;87.40;102645.41;5050477;28;20037;-67
2022/01/15 04:56:27;;;;;;;29.80;12.93;;;;;;;1.66;86.59;102647.47;5051364;28;20427;-67
2022/01/15 04:58:54;;;;;;;32.33;13.93;;;;;;;1.52;86.61;102652.28;5052654;28;20044;-68
2022/01/15 05:01:22;;;;;;;34.65;14.27;;;;;;;1.56;87.04;102655.66;5049930;28;20048;-68
2022/01/15 05:03:49;;;;;;;33.65;14.32;;;;;;;1.52;87.11;102640.06;5049958;28;20040;-67
2022/01/15 05:06:16;;;;;;;39.42;15.02;;;;;;;1.61;87.34;102649.38;5051382;28;20056;-67
2022/01/15 05:08:45;;;;;;;36.75;15.32;;;;;;;1.64;87.02;102649.28;5050760;28;20037;-67
2022/01/15 05:11:21;;;;;;;38.70;16.10;;;;;;;1.70;86.86;102645.63;5051490;28;20044;-67
2022/01/15 05:13:49;;;;;;;36.25;15.77;;;;;;;1.71;86.28;102642.97;5052178;28;20053;-67
2022/01/15 05:16:16;;;;;;;34.50;14.30;;;;;;;1.54;86.27;102645.25;5052290;28;20127;-67
2022/01/15 05:18:43;;;;;;;32.63;14.20;;;;;;;1.69;85.76;102644.78;5052467;28;20041;-67
2022/01/15 05:21:10;;;;;;;36.17;14.82;;;;;;;1.57;86.58;102649.53;5051200;28;20041;-68
2022/01/15 05:23:36;;;;;;;34.13;14.55;;;;;;;1.59;86.63;102655.56;5051376;28;20071;-68
2022/01/15 05:26:03;;;;;;;43.60;16.08;;;;;;;1.57;86.93;102646.94;5052325;28;20094;-67
2022/01/15 05:28:30;;;;;;;33.53;14.73;;;;;;;1.59;86.63;102638.13;5052413;28;20041;-68
2022/01/15 05:30:56;;;;;;;36.88;15.45;;;;;;;1.48;86.68;102643.69;5050638;28;20455;-68
2022/01/15 05:33:23;;;;;;;38.40;15.02;;;;;;;1.49;87.46;102640.19;5052331;28;20091;-68
2022/01/15 05:35:50;;;;;;;37.00;15.05;;;;;;;1.54;87.01;102640.00;5052202;28;20068;-67
2022/01/15 05:38:16;;;;;;;39.42;15.02;;;;;;;1.56;87.62;102638.19;5051852;28;20040;-68
2022/01/15 05:40:43;;;;;;;38.95;14.85;;;;;;;1.57;87.26;102642.53;5052375;28;20045;-68
2022/01/15 05:43:10;;;;;;;38.20;14.77;;;;;;;1.59;86.89;102634.66;5084684;28;20047;-67
2022/01/15 05:45:37;;;;;;;41.67;14.45;;;;;;;1.58;87.15;102633.78;5084368;28;20091;-67
2022/01/15 05:48:04;;;;;;;42.70;15.63;;;;;;;1.68;86.69;102639.59;5051250;28;20052;-68
2022/01/15 05:50:30;;;;;;;40.22;14.82;;;;;;;1.47;87.30;102631.50;5052034;28;20037;-68
2022/01/15 05:52:58;;;;;;;39.75;14.95;;;;;;;1.57;87.59;102623.38;5051636;28;20127;-68
2022/01/15 05:55:25;;;;;;;37.58;15.60;;;;;;;1.43;88.33;102634.28;5050744;28;20033;-68
2022/01/15 05:57:52;;;;;;;39.70;15.05;;;;;;;1.60;87.68;102626.75;5034841;28;20060;-68
2022/01/15 06:00:19;;;;;;;47.50;15.65;;;;;;;1.57;87.73;102626.84;5053471;28;20500;-68
2022/01/15 06:02:48;;;;;;;41.13;15.40;;;;;;;1.61;87.30;102619.75;5056097;28;20086;-68
2022/01/15 06:05:15;;;;;;;43.72;15.05;;;;;;;1.59;87.59;102616.34;5046263;28;20100;-68
2022/01/15 06:07:42;;;;;;;39.10;14.75;;;;;;;1.63;87.37;102620.56;5037619;28;20447;-68
2022/01/15 06:10:09;;;;;;;45.05;15.85;;;;;;;1.57;87.62;102615.53;5055539;28;20052;-68
2022/01/15 06:12:42;;;;;;;45.50;15.38;;;;;;;1.58;88.08;102619.84;5055395;28;20569;-68
2022/01/15 06:15:11;;;;;;;44.50;15.52;;;;;;;1.63;87.66;102620.56;5055412;28;20033;-68
2022/01/15 06:17:39;;;;;;;40.42;15.63;;;;;;;1.72;87.29;102612.41;5055685;28;20095;-67
2022/01/15 06:20:07;;;;;;;42.15;16.17;;;;;;;1.64;87.21;102614.44;5054142;28;20061;-67
2022/01/15 06:22:34;;;;;;;43.08;17.35;;;;;;;1.65;87.18;102616.97;5054151;28;20098;-67
2022/01/15 06:25:03;;;;;;;45.47;16.13;;;;;;;1.60;86.91;102611.06;5055379;28;20164;-68
2022/01/15 06:27:31;;;;;;;44.30;16.13;;;;;;;1.68;87.03;102613.41;5054249;28;20048;-68
2022/01/15 06:29:58;;;;;;;41.80;16.63;;;;;;;1.52;88.06;102613.06;5054128;28;20493;-67
2022/01/15 06:32:27;;;;;;;46.33;17.02;;;;;;;1.68;87.66;102618.66;5037509;28;20040;-67
2022/01/15 06:34:54;;;;;;;48.83;17.65;;;;;;;1.65;87.64;102616.97;5051736;28;20041;-68
2022/01/15 06:37:21;;;;;;;46.47;18.05;;;;;;;1.68;87.40;102608.19;5054008;28;20045;-68
2022/01/15 06:39:48;;;;;;;42.08;15.82;;;;;;;1.70;86.85;102599.38;5054135;28;20045;-68
2022/01/15 06:42:14;;;;;;;42.70;16.67;;;;;;;1.74;86.77;102607.97;5037600;28;20044;-68
2022/01/15 06:44:41;;;;;;;44.60;17.27;;;;;;;1.68;87.84;102613.41;5087513;28;20037;-68
2022/01/15 06:47:08;;;;;;;44.67;16.63;;;;;;;1.45;88.03;102608.91;5087007;28;20037;-68
2022/01/15 06:49:36;;;;;;;38.08;16.38;;;;;;;1.51;87.91;102608.72;5055112;28;20192;-68
2022/01/15 06:52:03;;;;;;;43.08;16.42;;;;;;;1.52;87.87;102605.22;5053556;28;20057;-68
2022/01/15 06:54:30;;;;;;;42.00;16.08;;;;;;;1.54;87.55;102606.00;5054937;28;20045;-67
2022/01/15 06:56:56;;;;;;;39.30;15.60;;;;;;;1.51;88.01;102601.75;5054789;28;20037;-67
2022/01/15 06:59:23;;;;;;;36.75;16.30;;;;;;;1.54;87.57;102595.53;5055063;28;20470;-67
2022/01/15 07:01:50;;;;;;;41.15;17.38;;;;;;;1.54;87.72;102592.94;5052985;28;20547;-68
2022/01/15 07:04:17;;;;;;;42.83;15.93;;;;;;;1.61;87.75;102596.22;5050924;28;20090;-68
2022/01/15 07:06:43;;;;;;;40.03;15.55;;;;;;;1.58;87.93;102601.53;5034463;28;20041;-68
2022/01/15 07:09:10;;;;;;;42.17;17.25;;;;;;;1.54;87.61;102596.38;5048725;28;20528;-68
2022/01/15 07:11:37;;;;;;;40.50;15.48;;;;;;;1.52;88.34;102595.59;5053358;28;20056;-68
2022/01/15 07:14:03;;;;;;;39.60;16.00;;;;;;;1.60;87.57;102584.03;5052745;28;20051;-68
2022/01/15 07:16:31;;;;;;;43.08;16.42;;;;;;;1.70;87.36;102590.66;5053849;28;20139;-68
2022/01/15 07:18:58;;;;;;;35.22;13.65;;;;;;;1.60;87.30;102592.75;5053144;28;20037;-68
2022/01/15 07:21:25;;;;;;;36.38;15.35;;;;;;;1.56;87.31;102585.03;5054485;28;20122;-69
2022/01/15 07:23:51;;;;;;;36.20;15.57;;;;;;;1.60;87.97;102592.75;5054113;28;20408;-68
2022/01/15 07:26:18;;;;;;;40.08;16.15;;;;;;;1.54;87.73;102590.31;5054173;28;20036;-68
2022/01/15 07:28:45;;;;;;;40.83;15.32;;;;;;;1.71;87.34;102585.38;5053103;28;20497;-69
2022/01/15 07:31:11;;;;;;;39.25;16.08;;;;;;;1.66;87.82;102587.28;5034642;28;20444;-69
2022/01/15 07:33:38;;;;;;;36.92;16.20;;;;;;;1.78;86.97;102585.16;5054012;28;20049;-69
2022/01/15 07:36:05;;;;;;;42.72;16.45;;;;;;;1.70;87.27;102580.19;5052677;28;20036;-69
2022/01/15 07:38:32;;;;;;;40.75;16.35;;;;;;;1.75;87.20;102580.91;5053603;28;20508;-69
2022/01/15 07:40:59;;;;;;;38.00;16.15;;;;;;;1.73;87.20;102574.88;5054306;28;20041;-69
2022/01/15 07:43:27;;;;;;;39.67;17.23;;;;;;;1.56;87.36;102583.25;5052648;28;20045;-69
2022/01/15 07:45:54;;;;;;;38.00;17.45;;;;;;;1.68;88.18;102579.41;5052692;28;20489;-69
2022/01/15 07:48:21;;;;;;;33.63;15.88;;;;;;;1.66;87.53;102584.69;5052365;28;20094;-68
2022/01/15 07:50:50;;;;;;;36.65;14.98;;;;;;;1.58;86.84;102589.28;5052648;28;20424;-68
2022/01/15 07:53:17;;;;;;;35.33;16.15;;;;;;;1.52;86.73;102582.50;5052429;28;20102;-69
2022/01/15 07:55:44;;;;;;;35.28;15.90;;;;;;;1.50;87.05;102581.72;5053384;28;20047;-69
2022/01/15 07:58:10;;;;;;;34.40;15.35;;;;;;;1.45;87.75;102581.00;5053723;28;20052;-68
2022/01/15 08:00:37;;;;;;;33.17;14.63;;;;;;;1.50;87.42;102586.94;5052253;28;20072;-68
2022/01/15 08:03:04;;;;;;;32.78;15.00;;;;;;;1.36;87.41;102583.91;5053848;28;20171;-68
2022/01/15 08:05:31;;;;;;;36.20;16.70;;;;;;;1.48;87.77;102582.69;5050359;28;20128;-68
2022/01/15 08:07:58;;;;;;;34.83;15.13;;;;;;;1.41;87.97;102582.00;5053071;28;20098;-68
2022/01/15 08:10:24;;;;;;;36.33;15.48;;;;;;;1.29;87.82;102582.41;5051708;28;20052;-68
2022/01/15 08:12:51;;;;;;;39.42;16.77;;;;;;;1.43;87.62;102571.50;5052823;28;20041;-68
2022/01/15 08:15:20;;;;;;;35.97;16.40;;;;;;;1.49;87.78;102566.06;5051321;28;20120;-68
2022/01/15 08:17:48;;;;;;;33.53;16.25;;;;;;;1.54;87.44;102566.78;5052170;28;20083;-68
2022/01/15 08:20:16;;;;;;;39.35;17.50;;;;;;;1.56;86.87;102564.09;5053071;28;20068;-68
2022/01/15 08:22:44;;;;;;;36.63;14.75;;;;;;;1.58;87.33;102560.53;5052210;28;20041;-68
2022/01/15 08:25:13;;;;;;;34.40;15.25;;;;;;;1.51;86.86;102559.91;5051453;28;20059;-68
2022/01/15 08:27:40;;;;;;;34.40;15.30;;;;;;;1.55;87.00;102565.88;5053275;28;20048;-68
2022/01/15 08:30:08;;;;;;;33.40;15.13;;;;;;;1.64;86.68;102562.94;5030874;28;20045;-68
2022/01/15 08:32:36;;;;;;;33.28;15.23;;;;;;;1.63;86.81;102560.38;5033216;28;20449;-68
2022/01/15 08:35:03;;;;;;;33.42;15.38;;;;;;;1.67;86.63;102557.63;5038862;28;20044;-68
2022/01/15 08:37:30;;;;;;;33.28;14.52;;;;;;;1.66;86.33;102555.91;5052414;28;20110;-69
2022/01/15 08:39:57;;;;;;;31.60;15.10;;;;;;;1.65;86.52;102558.56;5053106;28;20066;-68
2022/01/15 08:42:24;;;;;;;35.50;14.82;;;;;;;1.71;86.13;102558.34;5051903;28;20079;-68
2022/01/15 08:44:52;;;;;;;30.83;14.75;;;;;;;1.73;85.82;102553.94;5052615;28;20512;-68
2022/01/15 08:47:18;;;;;;;34.70;14.82;;;;;;;1.77;85.78;102558.16;5051900;28;20102;-68
2022/01/15 08:49:45;;;;;;;32.45;15.23;;;;;;;1.80;86.40;102557.19;5053045;28;20041;-68
2022/01/15 08:52:13;;;;;;;29.48;14.23;;;;;;;1.75;86.21;102552.13;5052720;28;20047;-68
2022/01/15 08:54:39;;;;;;;31.60;14.30;;;;;;;1.93;86.11;102540.16;5051645;28;20056;-68
2022/01/15 08:57:07;;;;;;;31.05;14.13;;;;;;;1.83;86.25;102552.69;5052642;28;20052;-68
2022/01/15 08:59:34;;;;;;;32.05;13.57;;;;;;;1.78;86.49;102556.38;5052667;28;20382;-68
2022/01/15 09:02:01;;;;;;;32.72;13.50;;;;;;;1.84;86.39;102564.88;5052512;28;20041;-68
2022/01/15 09:04:28;;;;;;;28.00;13.75;;;;;;;1.87;85.47;102556.94;5045752;28;20067;-68
2022/01/15 09:06:55;;;;;;;30.15;13.57;;;;;;;1.77;86.60;102558.16;5052084;28;20456;-68
2022/01/15 09:09:21;;;;;;;30.65;14.05;;;;;;;1.80;85.71;102563.28;5052647;28;20471;-68
2022/01/15 09:11:49;;;;;;;27.00;13.85;;;;;;;1.88;85.76;102560.41;5052505;28;20562;-68
2022/01/15 09:14:16;;;;;;;30.48;13.88;;;;;;;1.86;86.52;102567.47;5050647;28;20505;-68
2022/01/15 09:16:43;;;;;;;32.00;13.60;;;;;;;1.94;85.81;102567.19;5052265;28;20542;-68
2022/01/15 09:19:10;;;;;;;32.10;13.85;;;;;;;1.91;85.61;102568.13;5051254;28;20041;-68
2022/01/15 09:21:37;;;;;;;28.77;13.50;;;;;;;1.90;85.45;102559.44;5052413;28;20045;-68
2022/01/15 09:24:04;;;;;;;28.05;12.85;;;;;;;1.91;86.17;102555.03;5041882;28;20064;-68
2022/01/15 09:26:47;;;;;;;27.38;13.20;;;;;;;1.87;86.57;102556.06;4998424;28;20468;-68
2022/01/15 09:32:05;;;;;;;30.20;14.05;;;;;;;1.84;86.28;102553.56;5032404;28;20048;-68
2022/01/15 09:34:34;;;;;;;27.25;13.02;;;;;;;1.89;86.73;102542.03;5032391;28;20116;-68
2022/01/15 09:37:03;;;;;;;25.83;12.93;;;;;;;1.95;86.17;102543.56;5055642;28;20037;-68
2022/01/15 09:39:31;;;;;;;27.88;12.07;;;;;;;1.99;86.63;102544.31;5056420;28;20489;-68
2022/01/15 09:41:57;;;;;;;24.20;12.13;;;;;;;2.06;85.89;102546.66;5055208;28;20515;-68
2022/01/15 09:44:26;;;;;;;24.55;11.98;;;;;;;2.10;85.65;102547.41;5054565;28;20045;-68
2022/01/15 09:46:53;;;;;;;28.13;12.60;;;;;;;2.09;85.50;102546.56;5054956;28;20037;-68
2022/01/15 09:49:23;;;;;;;26.63;12.68;;;;;;;1.98;86.63;102542.59;5054648;28;20088;-68
2022/01/15 09:51:50;;;;;;;26.50;13.02;;;;;;;2.08;86.05;102536.13;5055090;28;20041;-68
2022/01/15 09:54:18;;;;;;;26.35;12.68;;;;;;;2.14;86.15;102533.28;5055794;28;20053;-68
2022/01/15 09:56:46;;;;;;;24.50;11.70;;;;;;;2.18;85.59;102523.56;5055424;28;20043;-68
2022/01/15 09:59:13;;;;;;;24.15;12.25;;;;;;;2.18;85.63;102523.56;5006072;28;20095;-68
2022/01/15 10:01:40;;;;;;;23.85;12.45;;;;;;;2.35;85.51;102522.94;5056086;28;20037;-68
2022/01/15 10:04:07;;;;;;;25.33;11.32;;;;;;;2.40;84.76;102511.41;5054175;28;20214;-68
2022/01/15 10:06:34;;;;;;;24.17;11.07;;;;;;;2.33;85.23;102520.38;5054352;28;20045;-68
2022/01/15 10:09:05;;;;;;;21.75;10.80;;;;;;;2.38;85.35;102513.19;5055684;28;20063;-68
2022/01/15 10:11:52;;;;;;;24.70;10.90;;;;;;;2.41;85.39;102512.25;5070824;28;20462;-69
2022/01/15 10:17:02;;;;;;;20.95;10.05;;;;;;;2.38;84.50;102502.72;5088035;27;20380;-69
2022/01/15 10:19:35;;;;;;;21.83;10.88;;;;;;;2.38;84.90;102507.94;5069566;28;20051;-68
2022/01/15 10:22:05;;;;;;;23.75;10.85;;;;;;;2.45;85.20;102508.59;5068826;28;20045;-68
2022/01/15 10:24:32;;;;;;;20.70;10.73;;;;;;;2.46;85.46;102507.69;5052206;28;20544;-68
2022/01/15 10:27:17;;;;;;;22.98;11.10;;;;;;;2.57;85.08;102508.13;5069658;28;20041;-68
2022/01/15 10:30:10;;;;;;;19.10;9.65;;;;;;;2.45;84.67;102501.56;5069488;28;20047;-68
2022/01/15 10:32:40;;;;;;;20.38;9.77;;;;;;;2.41;85.17;102492.13;5069628;28;20044;-68
2022/01/15 10:35:13;;;;;;;19.83;9.88;;;;;;;2.43;85.47;102508.63;5068384;28;20032;-67
2022/01/15 10:37:57;;;;;;;24.75;10.85;;;;;;;2.44;85.30;102499.88;5068123;28;20076;-67
2022/01/15 10:40:27;;;;;;;24.80;10.85;;;;;;;2.56;85.57;102492.47;5101825;28;20449;-68
2022/01/15 10:42:57;;;;;;;21.55;10.60;;;;;;;2.37;85.79;102501.03;5102087;28;20036;-68
2022/01/15 10:45:29;;;;;;;21.05;9.48;;;;;;;2.41;86.35;102493.91;5084931;28;20044;-68
2022/01/15 10:48:00;;;;;;;18.48;10.05;;;;;;;2.47;86.08;102493.66;5069611;28;20045;-68
2022/01/15 10:50:33;;;;;;;19.60;10.70;;;;;;;2.54;85.75;102486.44;5069749;28;20041;-68
2022/01/15 10:53:15;;;;;;;22.75;10.27;;;;;;;2.58;85.70;102482.75;5051268;28;20103;-68
2022/01/15 10:55:42;;;;;;;21.27;10.55;;;;;;;2.71;85.28;102484.00;5068915;28;20037;-68
2022/01/15 10:58:11;;;;;;;19.45;10.20;;;;;;;2.77;85.56;102480.28;5068064;28;20115;-68
2022/01/15 11:00:41;;;;;;;21.92;10.73;;;;;;;2.75;84.94;102485.59;5051568;28;20059;-69
2022/01/15 11:03:10;;;;;;;20.98;10.43;;;;;;;2.87;84.69;102481.63;5069403;28;20147;-69
2022/01/15 11:05:41;;;;;;;19.25;9.48;;;;;;;2.87;84.69;102479.00;5058130;28;20052;-68
2022/01/15 11:08:18;;;;;;;21.40;9.52;;;;;;;2.66;85.29;102481.56;5063734;28;20041;-69
2022/01/15 11:13:27;;;;;;;20.90;9.65;;;;;;;2.69;85.49;102484.06;5090654;27;20733;-69
2022/01/15 11:16:00;;;;;;;20.73;10.55;;;;;;;2.65;85.85;102476.38;5088260;28;20044;-69
2022/01/15 11:18:31;;;;;;;20.98;9.77;;;;;;;2.77;85.25;102461.94;5089121;28;20463;-68
2022/01/15 11:21:02;;;;;;;20.83;10.00;;;;;;;2.80;85.20;102467.03;5090125;28;20101;-68
2022/01/15 11:23:31;;;;;;;18.48;9.50;;;;;;;2.85;85.71;102465.94;5088861;28;20098;-68
2022/01/15 11:26:01;;;;;;;19.02;8.95;;;;;;;2.93;85.20;102470.91;5068275;28;20045;-69
2022/01/15 11:28:30;;;;;;;24.73;12.10;;;;;;;2.87;84.81;102466.75;5069970;28;20045;-69
2022/01/15 11:31:00;;;;;;;20.50;9.57;;;;;;;2.92;85.14;102461.31;5070961;28;20087;-68
2022/01/15 11:33:29;;;;;;;23.90;10.38;;;;;;;2.79;86.05;102462.75;5073822;28;20127;-68
2022/01/15 11:35:56;;;;;;;23.50;11.10;;;;;;;2.95;85.14;102466.44;5088084;28;20044;-69
2022/01/15 11:38:44;;;;;;;20.75;10.43;;;;;;;2.94;85.40;102458.63;5089280;28;20044;-68
2022/01/15 11:41:34;;;;;;;21.92;10.20;;;;;;;2.97;85.32;102455.91;5089702;28;20048;-68
2022/01/15 11:44:03;;;;;;;24.10;10.30;;;;;;;3.06;85.13;102455.53;5071895;28;20047;-69